sensor_id;sensor_type;location;lat;lon;timestamp;P1;durP1;ratioP1;P2;durP2;ratioP2
1358;SDS011;673;48.098;14.422;2023-04-06T00:01:04;2.47;;;2.28;;
1358;SDS011;673;48.098;14.422;2023-04-06T00:03:31;5.97;;;2.75;;
1358;SDS011;673;48.098;14.422;2023-04-06T00:05:58;6.60;;;3.72;;
1358;SDS011;673;48.098;14.422;2023-04-06T00:08:25;6.15;;;3.83;;
1358;SDS011;673;48.098;14.422;2023-04-06T00:10:52;8.18;;;3.38;;
1358;SDS011;673;48.098;14.422;2023-04-06T00:13:20;5.35;;;3.45;;
1358;SDS011;673;48.098;14.422;2023-04-06T00:15:47;2.97;;;2.60;;
1358;SDS011;673;48.098;14.422;2023-04-06T00:18:15;3.47;;;2.13;;
1358;SDS011;673;48.098;14.422;2023-04-06T00:20:43;3.53;;;2.70;;
1358;SDS011;673;48.098;14.422;2023-04-06T00:23:10;5.30;;;4.15;;
1358;SDS011;673;48.098;14.422;2023-04-06T00:25:37;4.13;;;3.72;;
1358;SDS011;673;48.098;14.422;2023-04-06T00:28:04;4.65;;;3.75;;
1358;SDS011;673;48.098;14.422;2023-04-06T00:30:31;4.30;;;3.53;;
1358;SDS011;673;48.098;14.422;2023-04-06T00:32:58;3.05;;;2.72;;
1358;SDS011;673;48.098;14.422;2023-04-06T00:35:27;7.00;;;3.50;;
1358;SDS011;673;48.098;14.422;2023-04-06T00:37:54;4.20;;;2.95;;
1358;SDS011;673;48.098;14.422;2023-04-06T00:40:21;3.65;;;2.20;;
1358;SDS011;673;48.098;14.422;2023-04-06T00:42:48;5.38;;;2.67;;
1358;SDS011;673;48.098;14.422;2023-04-06T00:45:15;4.80;;;3.20;;
1358;SDS011;673;48.098;14.422;2023-04-06T00:47:43;4.90;;;2.97;;
1358;SDS011;673;48.098;14.422;2023-04-06T00:50:10;1.90;;;1.77;;
1358;SDS011;673;48.098;14.422;2023-04-06T00:52:38;3.78;;;1.88;;
1358;SDS011;673;48.098;14.422;2023-04-06T00:55:05;3.08;;;1.92;;
1358;SDS011;673;48.098;14.422;2023-04-06T00:57:33;3.45;;;2.05;;
1358;SDS011;673;48.098;14.422;2023-04-06T01:00:00;4.10;;;2.40;;
1358;SDS011;673;48.098;14.422;2023-04-06T01:02:28;3.95;;;3.55;;
1358;SDS011;673;48.098;14.422;2023-04-06T01:04:55;2.28;;;1.63;;
1358;SDS011;673;48.098;14.422;2023-04-06T01:07:22;3.17;;;2.55;;
1358;SDS011;673;48.098;14.422;2023-04-06T01:09:52;3.33;;;2.85;;
1358;SDS011;673;48.098;14.422;2023-04-06T01:12:19;3.00;;;2.30;;
1358;SDS011;673;48.098;14.422;2023-04-06T01:14:46;4.13;;;2.50;;
1358;SDS011;673;48.098;14.422;2023-04-06T01:17:14;4.60;;;2.63;;
1358;SDS011;673;48.098;14.422;2023-04-06T01:19:41;2.55;;;1.98;;
1358;SDS011;673;48.098;14.422;2023-04-06T01:22:14;2.88;;;1.85;;
1358;SDS011;673;48.098;14.422;2023-04-06T01:24:42;3.33;;;2.30;;
1358;SDS011;673;48.098;14.422;2023-04-06T01:27:09;4.50;;;3.30;;
1358;SDS011;673;48.098;14.422;2023-04-06T01:29:36;3.47;;;2.38;;
1358;SDS011;673;48.098;14.422;2023-04-06T01:32:06;5.25;;;2.25;;
1358;SDS011;673;48.098;14.422;2023-04-06T01:34:34;2.80;;;2.58;;
1358;SDS011;673;48.098;14.422;2023-04-06T01:37:01;3.55;;;2.90;;
1358;SDS011;673;48.098;14.422;2023-04-06T01:39:29;3.22;;;2.20;;
1358;SDS011;673;48.098;14.422;2023-04-06T01:41:56;2.40;;;1.85;;
1358;SDS011;673;48.098;14.422;2023-04-06T01:44:23;2.22;;;2.00;;
1358;SDS011;673;48.098;14.422;2023-04-06T01:46:51;4.72;;;1.50;;
1358;SDS011;673;48.098;14.422;2023-04-06T01:49:18;3.28;;;1.73;;
1358;SDS011;673;48.098;14.422;2023-04-06T01:51:45;2.78;;;2.40;;
1358;SDS011;673;48.098;14.422;2023-04-06T01:54:12;2.30;;;1.52;;
1358;SDS011;673;48.098;14.422;2023-04-06T01:56:40;3.50;;;1.60;;
1358;SDS011;673;48.098;14.422;2023-04-06T01:59:08;3.97;;;2.15;;
1358;SDS011;673;48.098;14.422;2023-04-06T02:01:35;5.07;;;2.42;;
1358;SDS011;673;48.098;14.422;2023-04-06T02:04:02;4.00;;;1.73;;
1358;SDS011;673;48.098;14.422;2023-04-06T02:06:29;2.40;;;1.73;;
1358;SDS011;673;48.098;14.422;2023-04-06T02:08:56;4.93;;;1.40;;
1358;SDS011;673;48.098;14.422;2023-04-06T02:11:23;3.47;;;1.65;;
1358;SDS011;673;48.098;14.422;2023-04-06T02:13:52;2.70;;;1.20;;
1358;SDS011;673;48.098;14.422;2023-04-06T02:16:19;2.85;;;2.10;;
1358;SDS011;673;48.098;14.422;2023-04-06T02:18:46;2.40;;;1.85;;
1358;SDS011;673;48.098;14.422;2023-04-06T02:21:13;1.38;;;1.20;;
1358;SDS011;673;48.098;14.422;2023-04-06T02:23:45;3.45;;;1.45;;
1358;SDS011;673;48.098;14.422;2023-04-06T02:26:12;3.63;;;2.42;;
1358;SDS011;673;48.098;14.422;2023-04-06T02:28:39;1.20;;;1.10;;
1358;SDS011;673;48.098;14.422;2023-04-06T02:31:08;1.60;;;1.30;;
1358;SDS011;673;48.098;14.422;2023-04-06T02:33:36;1.80;;;1.30;;
1358;SDS011;673;48.098;14.422;2023-04-06T02:36:03;4.32;;;1.63;;
1358;SDS011;673;48.098;14.422;2023-04-06T02:38:30;3.72;;;2.22;;
1358;SDS011;673;48.098;14.422;2023-04-06T02:40:57;1.52;;;1.10;;
1358;SDS011;673;48.098;14.422;2023-04-06T02:43:24;3.17;;;1.40;;
1358;SDS011;673;48.098;14.422;2023-04-06T02:45:51;2.95;;;1.48;;
1358;SDS011;673;48.098;14.422;2023-04-06T02:48:20;2.40;;;1.70;;
1358;SDS011;673;48.098;14.422;2023-04-06T02:50:47;2.28;;;1.23;;
1358;SDS011;673;48.098;14.422;2023-04-06T02:53:14;1.60;;;1.25;;
1358;SDS011;673;48.098;14.422;2023-04-06T02:55:41;1.30;;;1.20;;
1358;SDS011;673;48.098;14.422;2023-04-06T02:58:08;2.15;;;1.80;;
1358;SDS011;673;48.098;14.422;2023-04-06T03:00:36;3.35;;;1.40;;
1358;SDS011;673;48.098;14.422;2023-04-06T03:03:03;2.67;;;1.70;;
1358;SDS011;673;48.098;14.422;2023-04-06T03:05:32;2.58;;;1.60;;
1358;SDS011;673;48.098;14.422;2023-04-06T03:07:59;5.53;;;1.55;;
1358;SDS011;673;48.098;14.422;2023-04-06T03:10:26;2.17;;;1.98;;
1358;SDS011;673;48.098;14.422;2023-04-06T03:12:53;6.25;;;1.95;;
1358;SDS011;673;48.098;14.422;2023-04-06T03:15:20;3.25;;;1.38;;
1358;SDS011;673;48.098;14.422;2023-04-06T03:17:47;2.50;;;1.63;;
1358;SDS011;673;48.098;14.422;2023-04-06T03:20:14;3.47;;;1.40;;
1358;SDS011;673;48.098;14.422;2023-04-06T03:22:43;1.88;;;1.63;;
1358;SDS011;673;48.098;14.422;2023-04-06T03:25:10;4.32;;;2.03;;
1358;SDS011;673;48.098;14.422;2023-04-06T03:27:37;2.72;;;1.70;;
1358;SDS011;673;48.098;14.422;2023-04-06T03:30:05;3.58;;;1.77;;
1358;SDS011;673;48.098;14.422;2023-04-06T03:32:32;2.17;;;1.80;;
1358;SDS011;673;48.098;14.422;2023-04-06T03:35:00;2.53;;;2.33;;
1358;SDS011;673;48.098;14.422;2023-04-06T03:37:27;2.67;;;1.70;;
1358;SDS011;673;48.098;14.422;2023-04-06T03:39:55;3.05;;;2.13;;
1358;SDS011;673;48.098;14.422;2023-04-06T03:42:22;3.75;;;1.80;;
1358;SDS011;673;48.098;14.422;2023-04-06T03:44:49;4.45;;;1.88;;
1358;SDS011;673;48.098;14.422;2023-04-06T03:47:17;2.60;;;1.50;;
1358;SDS011;673;48.098;14.422;2023-04-06T03:49:44;1.85;;;1.27;;
1358;SDS011;673;48.098;14.422;2023-04-06T03:52:11;2.53;;;1.48;;
1358;SDS011;673;48.098;14.422;2023-04-06T03:54:38;6.75;;;1.75;;
1358;SDS011;673;48.098;14.422;2023-04-06T03:57:06;2.88;;;1.70;;
1358;SDS011;673;48.098;14.422;2023-04-06T03:59:33;2.60;;;1.80;;
1358;SDS011;673;48.098;14.422;2023-04-06T04:02:00;2.42;;;1.50;;
1358;SDS011;673;48.098;14.422;2023-04-06T04:04:27;1.85;;;1.25;;
1358;SDS011;673;48.098;14.422;2023-04-06T04:06:55;1.50;;;1.40;;
1358;SDS011;673;48.098;14.422;2023-04-06T04:09:22;2.72;;;1.10;;
1358;SDS011;673;48.098;14.422;2023-04-06T04:11:49;1.88;;;1.10;;
1358;SDS011;673;48.098;14.422;2023-04-06T04:14:17;0.95;;;0.93;;
1358;SDS011;673;48.098;14.422;2023-04-06T04:16:45;3.90;;;1.50;;
1358;SDS011;673;48.098;14.422;2023-04-06T04:19:12;2.97;;;1.40;;
1358;SDS011;673;48.098;14.422;2023-04-06T04:21:42;4.30;;;1.80;;
1358;SDS011;673;48.098;14.422;2023-04-06T04:24:10;1.60;;;1.42;;
1358;SDS011;673;48.098;14.422;2023-04-06T04:26:37;2.70;;;1.33;;
1358;SDS011;673;48.098;14.422;2023-04-06T04:29:05;2.22;;;1.48;;
1358;SDS011;673;48.098;14.422;2023-04-06T04:31:34;2.13;;;1.65;;
1358;SDS011;673;48.098;14.422;2023-04-06T04:34:01;2.40;;;1.70;;
1358;SDS011;673;48.098;14.422;2023-04-06T04:36:29;5.55;;;3.78;;
1358;SDS011;673;48.098;14.422;2023-04-06T04:38:56;18.10;;;12.73;;
1358;SDS011;673;48.098;14.422;2023-04-06T04:41:23;12.18;;;7.10;;
1358;SDS011;673;48.098;14.422;2023-04-06T04:43:50;14.80;;;9.82;;
1358;SDS011;673;48.098;14.422;2023-04-06T04:46:17;15.93;;;9.13;;
1358;SDS011;673;48.098;14.422;2023-04-06T04:48:45;43.75;;;21.92;;
1358;SDS011;673;48.098;14.422;2023-04-06T04:51:12;18.98;;;9.27;;
1358;SDS011;673;48.098;14.422;2023-04-06T04:53:40;7.15;;;4.38;;
1358;SDS011;673;48.098;14.422;2023-04-06T04:56:07;26.42;;;16.80;;
1358;SDS011;673;48.098;14.422;2023-04-06T04:58:34;90.18;;;43.30;;
1358;SDS011;673;48.098;14.422;2023-04-06T05:01:01;123.85;;;57.58;;
1358;SDS011;673;48.098;14.422;2023-04-06T05:03:28;303.13;;;125.68;;
1358;SDS011;673;48.098;14.422;2023-04-06T05:05:57;128.75;;;55.58;;
1358;SDS011;673;48.098;14.422;2023-04-06T05:08:24;78.80;;;42.70;;
1358;SDS011;673;48.098;14.422;2023-04-06T05:10:51;23.55;;;13.10;;
1358;SDS011;673;48.098;14.422;2023-04-06T05:13:18;10.27;;;8.00;;
1358;SDS011;673;48.098;14.422;2023-04-06T05:15:45;4.25;;;2.95;;
1358;SDS011;673;48.098;14.422;2023-04-06T05:18:12;4.20;;;3.80;;
1358;SDS011;673;48.098;14.422;2023-04-06T05:20:40;10.15;;;8.95;;
1358;SDS011;673;48.098;14.422;2023-04-06T05:23:08;6.63;;;4.75;;
1358;SDS011;673;48.098;14.422;2023-04-06T05:25:35;4.13;;;2.60;;
1358;SDS011;673;48.098;14.422;2023-04-06T05:28:02;5.47;;;4.85;;
1358;SDS011;673;48.098;14.422;2023-04-06T05:30:29;1.70;;;1.60;;
1358;SDS011;673;48.098;14.422;2023-04-06T05:32:56;2.00;;;1.90;;
1358;SDS011;673;48.098;14.422;2023-04-06T05:35:24;2.45;;;2.20;;
1358;SDS011;673;48.098;14.422;2023-04-06T05:37:51;10.48;;;3.15;;
1358;SDS011;673;48.098;14.422;2023-04-06T05:40:20;11.88;;;2.38;;
1358;SDS011;673;48.098;14.422;2023-04-06T05:42:47;4.60;;;2.72;;
1358;SDS011;673;48.098;14.422;2023-04-06T05:45:14;18.42;;;6.00;;
1358;SDS011;673;48.098;14.422;2023-04-06T05:47:43;6.50;;;4.00;;
1358;SDS011;673;48.098;14.422;2023-04-06T05:50:10;5.40;;;3.17;;
1358;SDS011;673;48.098;14.422;2023-04-06T05:52:38;5.10;;;2.40;;
1358;SDS011;673;48.098;14.422;2023-04-06T05:55:08;3.20;;;2.15;;
1358;SDS011;673;48.098;14.422;2023-04-06T05:57:37;4.15;;;2.08;;
1358;SDS011;673;48.098;14.422;2023-04-06T06:00:05;3.25;;;2.40;;
1358;SDS011;673;48.098;14.422;2023-04-06T06:02:35;4.38;;;1.45;;
1358;SDS011;673;48.098;14.422;2023-04-06T06:05:02;3.92;;;2.10;;
1358;SDS011;673;48.098;14.422;2023-04-06T06:07:29;6.38;;;2.75;;
1358;SDS011;673;48.098;14.422;2023-04-06T06:09:56;2.63;;;1.90;;
1358;SDS011;673;48.098;14.422;2023-04-06T06:12:24;4.53;;;2.50;;
1358;SDS011;673;48.098;14.422;2023-04-06T06:14:52;6.40;;;2.47;;
1358;SDS011;673;48.098;14.422;2023-04-06T06:17:20;5.13;;;2.83;;
1358;SDS011;673;48.098;14.422;2023-04-06T06:19:47;5.03;;;2.87;;
1358;SDS011;673;48.098;14.422;2023-04-06T06:22:14;2.50;;;2.07;;
1358;SDS011;673;48.098;14.422;2023-04-06T06:24:41;5.30;;;2.37;;
1358;SDS011;673;48.098;14.422;2023-04-06T06:27:08;3.00;;;2.30;;
1358;SDS011;673;48.098;14.422;2023-04-06T06:29:35;3.65;;;1.73;;
1358;SDS011;673;48.098;14.422;2023-04-06T06:32:04;14.88;;;2.97;;
1358;SDS011;673;48.098;14.422;2023-04-06T06:34:31;4.03;;;3.25;;
1358;SDS011;673;48.098;14.422;2023-04-06T06:36:58;3.15;;;2.45;;
1358;SDS011;673;48.098;14.422;2023-04-06T06:39:25;2.93;;;2.67;;
1358;SDS011;673;48.098;14.422;2023-04-06T06:41:53;5.05;;;3.03;;
1358;SDS011;673;48.098;14.422;2023-04-06T06:44:20;4.82;;;3.55;;
1358;SDS011;673;48.098;14.422;2023-04-06T06:46:47;5.60;;;2.93;;
1358;SDS011;673;48.098;14.422;2023-04-06T06:49:16;5.73;;;3.37;;
1358;SDS011;673;48.098;14.422;2023-04-06T06:51:43;5.47;;;3.30;;
1358;SDS011;673;48.098;14.422;2023-04-06T06:54:11;4.40;;;4.00;;
1358;SDS011;673;48.098;14.422;2023-04-06T06:56:39;5.20;;;4.00;;
1358;SDS011;673;48.098;14.422;2023-04-06T06:59:06;5.53;;;3.30;;
1358;SDS011;673;48.098;14.422;2023-04-06T07:01:33;4.03;;;3.73;;
1358;SDS011;673;48.098;14.422;2023-04-06T07:04:00;4.23;;;3.47;;
1358;SDS011;673;48.098;14.422;2023-04-06T07:06:29;5.63;;;3.80;;
1358;SDS011;673;48.098;14.422;2023-04-06T07:08:56;3.40;;;3.20;;
1358;SDS011;673;48.098;14.422;2023-04-06T07:11:23;3.70;;;3.40;;
1358;SDS011;673;48.098;14.422;2023-04-06T07:13:51;3.90;;;3.50;;
1358;SDS011;673;48.098;14.422;2023-04-06T07:16:18;6.70;;;4.20;;
1358;SDS011;673;48.098;14.422;2023-04-06T07:18:45;4.00;;;3.60;;
1358;SDS011;673;48.098;14.422;2023-04-06T07:21:12;14.03;;;3.80;;
1358;SDS011;673;48.098;14.422;2023-04-06T07:23:41;6.13;;;3.70;;
1358;SDS011;673;48.098;14.422;2023-04-06T07:26:08;5.20;;;3.20;;
1358;SDS011;673;48.098;14.422;2023-04-06T07:28:35;4.73;;;3.73;;
1358;SDS011;673;48.098;14.422;2023-04-06T07:31:02;4.00;;;2.70;;
1358;SDS011;673;48.098;14.422;2023-04-06T07:33:29;4.13;;;3.77;;
1358;SDS011;673;48.098;14.422;2023-04-06T07:35:58;6.33;;;3.57;;
1358;SDS011;673;48.098;14.422;2023-04-06T07:38:25;4.93;;;3.07;;
1358;SDS011;673;48.098;14.422;2023-04-06T07:40:54;4.40;;;3.17;;
1358;SDS011;673;48.098;14.422;2023-04-06T07:43:21;3.97;;;3.60;;
1358;SDS011;673;48.098;14.422;2023-04-06T07:45:48;4.10;;;3.50;;
1358;SDS011;673;48.098;14.422;2023-04-06T07:48:15;4.60;;;3.07;;
1358;SDS011;673;48.098;14.422;2023-04-06T07:50:42;4.83;;;4.23;;
1358;SDS011;673;48.098;14.422;2023-04-06T07:53:09;4.20;;;3.53;;
1358;SDS011;673;48.098;14.422;2023-04-06T07:55:36;3.03;;;2.83;;
1358;SDS011;673;48.098;14.422;2023-04-06T07:58:05;4.97;;;3.20;;
1358;SDS011;673;48.098;14.422;2023-04-06T08:00:32;3.23;;;2.93;;
1358;SDS011;673;48.098;14.422;2023-04-06T08:02:59;3.90;;;3.30;;
1358;SDS011;673;48.098;14.422;2023-04-06T08:05:26;4.17;;;3.50;;
1358;SDS011;673;48.098;14.422;2023-04-06T08:07:53;3.90;;;3.00;;
1358;SDS011;673;48.098;14.422;2023-04-06T08:10:20;4.13;;;2.77;;
1358;SDS011;673;48.098;14.422;2023-04-06T08:12:47;2.97;;;2.77;;
1358;SDS011;673;48.098;14.422;2023-04-06T08:15:16;7.67;;;2.67;;
1358;SDS011;673;48.098;14.422;2023-04-06T08:17:44;6.03;;;5.43;;
1358;SDS011;673;48.098;14.422;2023-04-06T08:20:11;10.20;;;3.23;;
1358;SDS011;673;48.098;14.422;2023-04-06T08:22:39;5.90;;;2.33;;
1358;SDS011;673;48.098;14.422;2023-04-06T08:25:06;3.07;;;2.83;;
1358;SDS011;673;48.098;14.422;2023-04-06T08:27:34;5.33;;;3.60;;
1358;SDS011;673;48.098;14.422;2023-04-06T08:30:01;2.50;;;2.27;;
1358;SDS011;673;48.098;14.422;2023-04-06T08:32:30;3.70;;;1.93;;
1358;SDS011;673;48.098;14.422;2023-04-06T08:34:57;4.80;;;1.67;;
1358;SDS011;673;48.098;14.422;2023-04-06T08:37:25;2.17;;;1.97;;
1358;SDS011;673;48.098;14.422;2023-04-06T08:39:52;2.47;;;1.90;;
1358;SDS011;673;48.098;14.422;2023-04-06T08:42:19;9.97;;;2.50;;
1358;SDS011;673;48.098;14.422;2023-04-06T08:44:48;7.33;;;3.93;;
1358;SDS011;673;48.098;14.422;2023-04-06T08:47:17;3.37;;;3.07;;
1358;SDS011;673;48.098;14.422;2023-04-06T08:49:46;17.40;;;11.30;;
1358;SDS011;673;48.098;14.422;2023-04-06T08:52:13;3.93;;;2.53;;
1358;SDS011;673;48.098;14.422;2023-04-06T08:54:43;4.50;;;2.30;;
1358;SDS011;673;48.098;14.422;2023-04-06T08:57:10;7.33;;;3.00;;
1358;SDS011;673;48.098;14.422;2023-04-06T08:59:38;8.23;;;5.53;;
1358;SDS011;673;48.098;14.422;2023-04-06T09:02:06;6.90;;;4.57;;
1358;SDS011;673;48.098;14.422;2023-04-06T09:04:37;3.20;;;2.87;;
1358;SDS011;673;48.098;14.422;2023-04-06T09:07:06;2.10;;;1.90;;
1358;SDS011;673;48.098;14.422;2023-04-06T09:09:33;2.53;;;1.87;;
1358;SDS011;673;48.098;14.422;2023-04-06T09:12:00;3.90;;;1.57;;
1358;SDS011;673;48.098;14.422;2023-04-06T09:14:34;2.00;;;1.90;;
1358;SDS011;673;48.098;14.422;2023-04-06T09:17:02;3.00;;;2.80;;
1358;SDS011;673;48.098;14.422;2023-04-06T09:19:29;3.90;;;2.27;;
1358;SDS011;673;48.098;14.422;2023-04-06T09:22:03;2.93;;;2.23;;
1358;SDS011;673;48.098;14.422;2023-04-06T09:24:43;4.27;;;3.00;;
1358;SDS011;673;48.098;14.422;2023-04-06T09:27:11;3.77;;;3.47;;
1358;SDS011;673;48.098;14.422;2023-04-06T09:29:39;2.90;;;1.67;;
1358;SDS011;673;48.098;14.422;2023-04-06T09:32:07;13.57;;;7.67;;
1358;SDS011;673;48.098;14.422;2023-04-06T09:34:37;4.23;;;3.60;;
1358;SDS011;673;48.098;14.422;2023-04-06T09:40:01;1.53;;;1.43;;
1358;SDS011;673;48.098;14.422;2023-04-06T09:42:30;1.60;;;1.50;;
1358;SDS011;673;48.098;14.422;2023-04-06T09:44:57;6.47;;;3.17;;
1358;SDS011;673;48.098;14.422;2023-04-06T09:47:24;3.57;;;2.43;;
1358;SDS011;673;48.098;14.422;2023-04-06T09:49:53;2.40;;;1.60;;
1358;SDS011;673;48.098;14.422;2023-04-06T09:52:23;5.07;;;3.50;;
1358;SDS011;673;48.098;14.422;2023-04-06T09:54:55;2.23;;;1.67;;
1358;SDS011;673;48.098;14.422;2023-04-06T09:57:28;6.40;;;2.10;;
1358;SDS011;673;48.098;14.422;2023-04-06T10:00:01;6.17;;;3.93;;
1358;SDS011;673;48.098;14.422;2023-04-06T10:02:34;3.70;;;2.33;;
1358;SDS011;673;48.098;14.422;2023-04-06T10:05:09;3.90;;;2.50;;
1358;SDS011;673;48.098;14.422;2023-04-06T10:07:39;2.77;;;2.50;;
1358;SDS011;673;48.098;14.422;2023-04-06T10:10:09;5.10;;;3.50;;
1358;SDS011;673;48.098;14.422;2023-04-06T10:12:38;4.10;;;3.50;;
1358;SDS011;673;48.098;14.422;2023-04-06T10:15:06;4.73;;;3.10;;
1358;SDS011;673;48.098;14.422;2023-04-06T10:17:34;4.37;;;3.20;;
1358;SDS011;673;48.098;14.422;2023-04-06T10:20:02;10.03;;;7.00;;
1358;SDS011;673;48.098;14.422;2023-04-06T10:22:36;3.43;;;2.73;;
1358;SDS011;673;48.098;14.422;2023-04-06T10:25:09;2.77;;;2.57;;
1358;SDS011;673;48.098;14.422;2023-04-06T10:27:36;4.67;;;3.00;;
1358;SDS011;673;48.098;14.422;2023-04-06T10:30:04;5.90;;;3.10;;
1358;SDS011;673;48.098;14.422;2023-04-06T10:32:33;4.80;;;3.80;;
1358;SDS011;673;48.098;14.422;2023-04-06T10:35:05;4.70;;;2.70;;
1358;SDS011;673;48.098;14.422;2023-04-06T10:37:45;21.10;;;8.67;;
1358;SDS011;673;48.098;14.422;2023-04-06T10:40:22;20.80;;;13.00;;
1358;SDS011;673;48.098;14.422;2023-04-06T10:42:51;2.93;;;2.60;;
1358;SDS011;673;48.098;14.422;2023-04-06T10:45:19;6.67;;;3.10;;
1358;SDS011;673;48.098;14.422;2023-04-06T10:47:46;2.37;;;2.17;;
1358;SDS011;673;48.098;14.422;2023-04-06T10:50:14;2.73;;;2.50;;
1358;SDS011;673;48.098;14.422;2023-04-06T10:52:43;3.07;;;2.00;;
1358;SDS011;673;48.098;14.422;2023-04-06T10:55:11;3.23;;;2.50;;
1358;SDS011;673;48.098;14.422;2023-04-06T10:57:41;3.47;;;2.60;;
1358;SDS011;673;48.098;14.422;2023-04-06T11:00:11;2.03;;;1.93;;
1358;SDS011;673;48.098;14.422;2023-04-06T11:02:38;2.53;;;2.30;;
1358;SDS011;673;48.098;14.422;2023-04-06T11:05:07;2.60;;;2.23;;
1358;SDS011;673;48.098;14.422;2023-04-06T11:07:34;5.57;;;2.67;;
1358;SDS011;673;48.098;14.422;2023-04-06T11:10:01;5.13;;;3.43;;
1358;SDS011;673;48.098;14.422;2023-04-06T11:12:29;2.80;;;2.20;;
1358;SDS011;673;48.098;14.422;2023-04-06T11:14:58;5.10;;;2.87;;
1358;SDS011;673;48.098;14.422;2023-04-06T11:17:29;4.17;;;2.40;;
1358;SDS011;673;48.098;14.422;2023-04-06T11:19:57;3.63;;;2.77;;
1358;SDS011;673;48.098;14.422;2023-04-06T11:22:25;2.93;;;2.73;;
1358;SDS011;673;48.098;14.422;2023-04-06T11:24:52;3.93;;;2.37;;
1358;SDS011;673;48.098;14.422;2023-04-06T11:27:19;4.33;;;3.20;;
1358;SDS011;673;48.098;14.422;2023-04-06T11:29:47;2.73;;;2.40;;
1358;SDS011;673;48.098;14.422;2023-04-06T11:32:23;3.63;;;3.13;;
1358;SDS011;673;48.098;14.422;2023-04-06T11:34:50;2.80;;;2.60;;
1358;SDS011;673;48.098;14.422;2023-04-06T11:37:17;5.60;;;3.27;;
1358;SDS011;673;48.098;14.422;2023-04-06T11:39:47;2.17;;;2.07;;
1358;SDS011;673;48.098;14.422;2023-04-06T11:42:21;3.70;;;3.40;;
1358;SDS011;673;48.098;14.422;2023-04-06T11:44:52;3.00;;;2.37;;
1358;SDS011;673;48.098;14.422;2023-04-06T11:47:28;3.70;;;3.20;;
1358;SDS011;673;48.098;14.422;2023-04-06T11:49:56;3.50;;;3.20;;
1358;SDS011;673;48.098;14.422;2023-04-06T11:52:32;6.30;;;3.57;;
1358;SDS011;673;48.098;14.422;2023-04-06T11:55:09;3.50;;;3.20;;
1358;SDS011;673;48.098;14.422;2023-04-06T11:57:37;4.00;;;3.63;;
1358;SDS011;673;48.098;14.422;2023-04-06T12:00:05;3.83;;;3.50;;
1358;SDS011;673;48.098;14.422;2023-04-06T12:02:34;3.60;;;3.30;;
1358;SDS011;673;48.098;14.422;2023-04-06T12:05:02;3.93;;;3.53;;
1358;SDS011;673;48.098;14.422;2023-04-06T12:07:30;9.03;;;3.90;;
1358;SDS011;673;48.098;14.422;2023-04-06T12:09:58;7.27;;;3.83;;
1358;SDS011;673;48.098;14.422;2023-04-06T12:12:25;3.53;;;3.13;;
1358;SDS011;673;48.098;14.422;2023-04-06T12:14:52;6.10;;;3.63;;
1358;SDS011;673;48.098;14.422;2023-04-06T12:17:19;2.60;;;2.40;;
1358;SDS011;673;48.098;14.422;2023-04-06T12:19:48;3.33;;;3.13;;
1358;SDS011;673;48.098;14.422;2023-04-06T12:22:15;3.73;;;3.23;;
1358;SDS011;673;48.098;14.422;2023-04-06T12:24:42;3.90;;;3.60;;
1358;SDS011;673;48.098;14.422;2023-04-06T12:27:09;3.50;;;3.20;;
1358;SDS011;673;48.098;14.422;2023-04-06T12:29:36;3.27;;;3.07;;
1358;SDS011;673;48.098;14.422;2023-04-06T12:32:03;4.83;;;3.53;;
1358;SDS011;673;48.098;14.422;2023-04-06T12:34:31;3.83;;;2.80;;
1358;SDS011;673;48.098;14.422;2023-04-06T12:37:00;4.47;;;3.03;;
1358;SDS011;673;48.098;14.422;2023-04-06T12:39:27;2.77;;;2.50;;
1358;SDS011;673;48.098;14.422;2023-04-06T12:41:55;3.73;;;2.50;;
1358;SDS011;673;48.098;14.422;2023-04-06T12:44:22;3.47;;;3.17;;
1358;SDS011;673;48.098;14.422;2023-04-06T12:46:49;6.90;;;3.73;;
1358;SDS011;673;48.098;14.422;2023-04-06T12:49:17;4.90;;;3.30;;
1358;SDS011;673;48.098;14.422;2023-04-06T12:51:44;3.03;;;2.77;;
1358;SDS011;673;48.098;14.422;2023-04-06T12:54:13;2.53;;;2.30;;
1358;SDS011;673;48.098;14.422;2023-04-06T12:56:40;3.73;;;3.03;;
1358;SDS011;673;48.098;14.422;2023-04-06T12:59:07;3.27;;;2.73;;
1358;SDS011;673;48.098;14.422;2023-04-06T13:01:34;3.23;;;2.90;;
1358;SDS011;673;48.098;14.422;2023-04-06T13:04:01;2.87;;;2.67;;
1358;SDS011;673;48.098;14.422;2023-04-06T13:06:28;3.73;;;3.33;;
1358;SDS011;673;48.098;14.422;2023-04-06T13:08:55;3.23;;;2.93;;
1358;SDS011;673;48.098;14.422;2023-04-06T13:11:24;7.23;;;3.70;;
1358;SDS011;673;48.098;14.422;2023-04-06T13:13:52;2.70;;;2.10;;
1358;SDS011;673;48.098;14.422;2023-04-06T13:16:19;2.50;;;2.30;;
1358;SDS011;673;48.098;14.422;2023-04-06T13:18:46;5.20;;;3.50;;
1358;SDS011;673;48.098;14.422;2023-04-06T13:21:13;2.53;;;2.33;;
1358;SDS011;673;48.098;14.422;2023-04-06T13:23:41;2.60;;;2.40;;
1358;SDS011;673;48.098;14.422;2023-04-06T13:26:09;2.13;;;2.03;;
1358;SDS011;673;48.098;14.422;2023-04-06T13:28:39;2.93;;;2.67;;
1358;SDS011;673;48.098;14.422;2023-04-06T13:31:06;2.70;;;2.50;;
1358;SDS011;673;48.098;14.422;2023-04-06T13:33:34;3.37;;;3.07;;
1358;SDS011;673;48.098;14.422;2023-04-06T13:36:02;3.17;;;2.97;;
1358;SDS011;673;48.098;14.422;2023-04-06T13:38:30;3.40;;;2.90;;
1358;SDS011;673;48.098;14.422;2023-04-06T13:40:58;2.67;;;2.47;;
1358;SDS011;673;48.098;14.422;2023-04-06T13:43:25;2.77;;;2.47;;
1358;SDS011;673;48.098;14.422;2023-04-06T13:45:54;3.47;;;3.17;;
1358;SDS011;673;48.098;14.422;2023-04-06T13:48:23;3.40;;;2.30;;
1358;SDS011;673;48.098;14.422;2023-04-06T13:50:51;3.20;;;2.60;;
1358;SDS011;673;48.098;14.422;2023-04-06T13:53:18;2.47;;;2.37;;
1358;SDS011;673;48.098;14.422;2023-04-06T13:55:51;2.67;;;2.33;;
1358;SDS011;673;48.098;14.422;2023-04-06T13:58:19;2.50;;;2.23;;
1358;SDS011;673;48.098;14.422;2023-04-06T14:00:46;2.90;;;2.70;;
1358;SDS011;673;48.098;14.422;2023-04-06T14:03:14;2.50;;;2.30;;
1358;SDS011;673;48.098;14.422;2023-04-06T14:05:41;2.93;;;2.70;;
1358;SDS011;673;48.098;14.422;2023-04-06T14:08:08;3.57;;;3.27;;
1358;SDS011;673;48.098;14.422;2023-04-06T14:10:38;4.50;;;2.77;;
1358;SDS011;673;48.098;14.422;2023-04-06T14:13:07;2.70;;;2.07;;
1358;SDS011;673;48.098;14.422;2023-04-06T14:15:34;1.97;;;1.87;;
1358;SDS011;673;48.098;14.422;2023-04-06T14:18:01;1.83;;;1.73;;
1358;SDS011;673;48.098;14.422;2023-04-06T14:20:29;2.70;;;2.50;;
1358;SDS011;673;48.098;14.422;2023-04-06T14:22:58;2.43;;;2.23;;
1358;SDS011;673;48.098;14.422;2023-04-06T14:25:26;2.17;;;2.03;;
1358;SDS011;673;48.098;14.422;2023-04-06T14:27:53;5.10;;;3.00;;
1358;SDS011;673;48.098;14.422;2023-04-06T14:30:20;2.50;;;2.30;;
1358;SDS011;673;48.098;14.422;2023-04-06T14:32:47;2.07;;;1.97;;
1358;SDS011;673;48.098;14.422;2023-04-06T14:35:14;2.17;;;2.07;;
1358;SDS011;673;48.098;14.422;2023-04-06T14:37:42;2.13;;;1.93;;
1358;SDS011;673;48.098;14.422;2023-04-06T14:40:10;2.47;;;2.07;;
1358;SDS011;673;48.098;14.422;2023-04-06T14:42:37;1.90;;;1.80;;
1358;SDS011;673;48.098;14.422;2023-04-06T14:45:05;2.80;;;1.90;;
1358;SDS011;673;48.098;14.422;2023-04-06T14:47:32;2.97;;;1.93;;
1358;SDS011;673;48.098;14.422;2023-04-06T14:49:59;1.87;;;1.73;;
1358;SDS011;673;48.098;14.422;2023-04-06T14:52:26;1.90;;;1.73;;
1358;SDS011;673;48.098;14.422;2023-04-06T14:54:54;2.30;;;1.70;;
1358;SDS011;673;48.098;14.422;2023-04-06T14:57:21;2.57;;;1.97;;
1358;SDS011;673;48.098;14.422;2023-04-06T14:59:48;3.40;;;2.20;;
1358;SDS011;673;48.098;14.422;2023-04-06T15:02:18;3.43;;;1.70;;
1358;SDS011;673;48.098;14.422;2023-04-06T15:04:45;1.60;;;1.50;;
1358;SDS011;673;48.098;14.422;2023-04-06T15:07:12;1.70;;;1.60;;
1358;SDS011;673;48.098;14.422;2023-04-06T15:09:40;2.00;;;1.77;;
1358;SDS011;673;48.098;14.422;2023-04-06T15:12:08;2.40;;;1.50;;
1358;SDS011;673;48.098;14.422;2023-04-06T15:14:35;1.93;;;1.83;;
1358;SDS011;673;48.098;14.422;2023-04-06T15:17:02;1.73;;;1.63;;
1358;SDS011;673;48.098;14.422;2023-04-06T15:19:29;2.13;;;1.73;;
1358;SDS011;673;48.098;14.422;2023-04-06T15:21:56;2.70;;;2.10;;